createdAt,value
2023-04-30T00:01:00.393Z,7.07
2023-04-30T00:04:24.349Z,5.80
2023-04-30T00:07:48.023Z,6.50
2023-04-30T00:11:11.598Z,6.43
2023-04-30T00:14:36.504Z,7.60
2023-04-30T00:18:00.571Z,7.20
2023-04-30T00:21:24.235Z,6.20
2023-04-30T00:24:47.766Z,6.47
2023-04-30T00:28:11.279Z,7.30
2023-04-30T00:31:36.178Z,7.60
2023-04-30T00:34:59.709Z,7.20
2023-04-30T00:38:23.242Z,7.43
2023-04-30T00:41:47.098Z,6.33
2023-04-30T00:45:11.793Z,7.23
2023-04-30T00:48:37.024Z,6.17
2023-04-30T00:52:01.299Z,6.80
2023-04-30T00:55:24.821Z,7.37
2023-04-30T00:58:51.387Z,6.50
2023-04-30T01:02:15.110Z,7.77
2023-04-30T01:05:40.034Z,7.17
2023-04-30T01:09:03.664Z,6.07
2023-04-30T01:12:36.017Z,6.23
2023-04-30T01:16:10.315Z,6.50
2023-04-30T01:19:42.893Z,6.23
2023-04-30T01:23:19.780Z,6.33
2023-04-30T01:26:58.269Z,5.90
2023-04-30T01:30:25.181Z,5.07
2023-04-30T01:33:49.434Z,6.20
2023-04-30T01:37:23.148Z,4.87
2023-04-30T01:40:54.384Z,5.67
2023-04-30T01:44:30.304Z,6.10
2023-04-30T01:48:04.070Z,5.33
2023-04-30T01:51:33.984Z,5.13
2023-04-30T01:55:06.435Z,5.03
2023-04-30T01:58:31.721Z,5.10
2023-04-30T02:01:57.181Z,6.20
2023-04-30T02:05:22.236Z,6.43
2023-04-30T02:08:45.834Z,6.80
2023-04-30T02:12:09.462Z,7.67
2023-04-30T02:15:33.146Z,6.13
2023-04-30T02:18:57.118Z,6.80
2023-04-30T02:22:21.986Z,5.70
2023-04-30T02:25:45.609Z,4.87
2023-04-30T02:29:09.080Z,4.57
2023-04-30T02:32:32.718Z,4.50
2023-04-30T02:35:56.473Z,5.00
2023-04-30T02:39:23.698Z,6.30
2023-04-30T02:42:47.184Z,5.80
2023-04-30T02:46:12.468Z,5.20
2023-04-30T02:49:36.392Z,5.40
2023-04-30T02:52:59.945Z,5.57
2023-04-30T02:56:24.925Z,5.57
2023-04-30T02:59:48.605Z,4.90
2023-04-30T03:03:12.282Z,5.17
2023-04-30T03:06:36.063Z,5.97
2023-04-30T03:09:59.685Z,6.40
2023-04-30T03:13:25.981Z,6.37
2023-04-30T03:16:49.630Z,6.47
2023-04-30T03:20:13.950Z,5.80
2023-04-30T03:23:37.678Z,6.17
2023-04-30T03:27:01.945Z,8.00
2023-04-30T03:30:27.037Z,9.47
2023-04-30T03:33:50.922Z,6.30
2023-04-30T03:37:14.510Z,5.80
2023-04-30T03:40:38.096Z,5.47
2023-04-30T03:44:01.641Z,6.70
2023-04-30T03:47:26.541Z,6.50
2023-04-30T03:50:50.602Z,6.20
2023-04-30T03:54:14.078Z,5.47
2023-04-30T03:57:38.170Z,6.40
2023-04-30T04:01:01.821Z,5.37
2023-04-30T04:04:26.896Z,5.13
2023-04-30T04:07:50.736Z,6.23
2023-04-30T04:11:14.276Z,5.73
2023-04-30T04:14:37.996Z,6.40
2023-04-30T04:18:01.688Z,5.80
2023-04-30T04:21:26.927Z,6.60
2023-04-30T04:24:51.105Z,7.43
2023-04-30T04:28:17.617Z,5.43
2023-04-30T04:31:42.654Z,6.33
2023-04-30T04:35:08.069Z,7.20
2023-04-30T04:38:33.624Z,7.03
2023-04-30T04:41:58.114Z,7.17
2023-04-30T04:45:22.369Z,7.27
2023-04-30T04:48:46.888Z,6.57
2023-04-30T04:52:11.088Z,6.57
2023-04-30T04:55:36.125Z,6.87
2023-04-30T04:59:00.130Z,6.77
2023-04-30T05:02:23.877Z,6.80
2023-04-30T05:05:48.402Z,7.47
2023-04-30T05:09:12.025Z,7.33
2023-04-30T05:12:36.912Z,7.50
2023-04-30T05:16:00.533Z,7.77
2023-04-30T05:19:24.146Z,6.97
2023-04-30T05:22:47.652Z,6.27
2023-04-30T05:26:11.156Z,7.00
2023-04-30T05:29:36.117Z,6.53
2023-04-30T05:32:59.719Z,5.90
2023-04-30T05:36:23.445Z,6.17
2023-04-30T05:39:47.095Z,6.20
2023-04-30T05:43:10.724Z,6.10
2023-04-30T05:46:36.437Z,5.90
2023-04-30T05:50:00.018Z,4.70
2023-04-30T05:53:23.623Z,5.20
2023-04-30T05:56:47.257Z,6.47
2023-04-30T06:00:12.450Z,5.70
2023-04-30T06:03:37.635Z,5.50
2023-04-30T06:07:01.195Z,4.90
2023-04-30T06:10:25.481Z,5.73
2023-04-30T06:13:49.494Z,4.83
2023-04-30T06:17:13.138Z,4.33
2023-04-30T06:20:37.977Z,3.90
2023-04-30T06:24:01.471Z,4.90
2023-04-30T06:27:27.856Z,4.10
2023-04-30T06:30:51.798Z,3.63
2023-04-30T06:34:15.454Z,4.10
2023-04-30T06:37:40.362Z,3.77
2023-04-30T06:41:04.048Z,3.93
2023-04-30T06:44:27.584Z,3.73
2023-04-30T06:47:53.390Z,5.20
2023-04-30T06:51:18.371Z,4.27
2023-04-30T06:54:43.803Z,5.10
2023-04-30T06:58:08.221Z,5.67
2023-04-30T07:01:33.342Z,5.00
2023-04-30T07:04:56.950Z,2.83
2023-04-30T07:08:20.673Z,4.93
2023-04-30T07:11:46.472Z,3.30
2023-04-30T07:15:20.856Z,3.80
2023-04-30T07:18:48.658Z,3.40
2023-04-30T07:22:15.287Z,3.27
2023-04-30T07:25:41.758Z,3.37
2023-04-30T07:29:10.012Z,3.20
2023-04-30T07:32:43.065Z,3.43
2023-04-30T07:36:08.118Z,3.13
2023-04-30T07:39:33.258Z,4.03
2023-04-30T07:42:59.228Z,3.40
2023-04-30T07:46:24.967Z,4.60
2023-04-30T07:49:49.089Z,3.53
2023-04-30T07:53:15.618Z,3.50
2023-04-30T07:56:39.546Z,3.83
2023-04-30T08:00:04.932Z,4.40
2023-04-30T08:03:50.171Z,3.13
2023-04-30T08:07:16.451Z,3.37
2023-04-30T08:10:41.823Z,4.07
2023-04-30T08:14:08.468Z,3.80
2023-04-30T08:17:32.135Z,3.70
2023-04-30T08:20:57.519Z,3.43
2023-04-30T08:24:21.570Z,3.63
2023-04-30T08:27:45.417Z,3.63
2023-04-30T08:31:09.500Z,3.77
2023-04-30T08:34:33.329Z,3.93
2023-04-30T08:37:58.491Z,5.37
2023-04-30T08:41:26.734Z,4.40
2023-04-30T08:44:50.555Z,5.20
2023-04-30T08:48:16.657Z,5.30
2023-04-30T08:51:40.935Z,5.50
2023-04-30T08:55:09.328Z,5.20
2023-04-30T08:58:33.444Z,5.43
2023-04-30T09:01:57.159Z,5.00
2023-04-30T09:05:21.175Z,4.10
2023-04-30T09:08:46.931Z,3.60
2023-04-30T09:12:19.040Z,3.23
2023-04-30T09:15:45.564Z,3.70
2023-04-30T09:19:09.228Z,3.37
2023-04-30T09:22:32.830Z,3.90
2023-04-30T09:25:57.110Z,3.67
2023-04-30T09:29:22.097Z,3.93
2023-04-30T09:32:57.174Z,3.67
2023-04-30T09:36:20.958Z,3.33
2023-04-30T09:39:49.502Z,4.20
2023-04-30T09:43:13.336Z,3.40
2023-04-30T09:46:38.512Z,3.77
2023-04-30T09:50:02.229Z,4.33
2023-04-30T09:53:25.842Z,3.37
2023-04-30T09:56:53.394Z,3.40
2023-04-30T10:00:18.522Z,3.40
2023-04-30T10:03:44.685Z,2.90
2023-04-30T10:07:15.380Z,2.90
2023-04-30T10:10:41.935Z,2.47
2023-04-30T10:14:11.398Z,2.90
2023-04-30T10:17:40.938Z,2.70
2023-04-30T10:21:12.474Z,3.20
2023-04-30T10:24:36.175Z,3.70
2023-04-30T10:28:00.607Z,3.50
2023-04-30T10:31:25.606Z,3.10
2023-04-30T10:34:56.388Z,3.13
2023-04-30T10:38:25.043Z,3.47
2023-04-30T10:41:49.016Z,2.83
2023-04-30T10:45:13.521Z,2.50
2023-04-30T10:48:37.112Z,3.47
2023-04-30T10:52:02.540Z,2.93
2023-04-30T10:55:31.198Z,3.20
2023-04-30T10:58:54.804Z,3.50
2023-04-30T11:02:18.566Z,3.00
2023-04-30T11:05:42.454Z,3.10
2023-04-30T11:09:06.110Z,2.93
2023-04-30T11:12:31.141Z,2.80
2023-04-30T11:15:55.044Z,2.60
2023-04-30T11:19:19.833Z,2.60
2023-04-30T11:22:43.409Z,3.27
2023-04-30T11:26:08.786Z,3.50
2023-04-30T11:29:34.579Z,2.60
2023-04-30T11:33:01.650Z,2.43
2023-04-30T11:36:26.582Z,2.63
2023-04-30T11:39:51.969Z,3.37
2023-04-30T11:43:26.734Z,2.70
2023-04-30T11:46:52.909Z,2.53
2023-04-30T11:50:17.921Z,2.00
2023-04-30T11:53:41.855Z,2.87
2023-04-30T11:57:06.313Z,2.80
2023-04-30T12:00:31.355Z,2.70
2023-04-30T12:03:57.834Z,2.33
2023-04-30T12:07:22.734Z,2.83
2023-04-30T12:10:46.419Z,2.70
2023-04-30T12:14:11.863Z,2.77
2023-04-30T12:17:36.399Z,2.10
2023-04-30T12:21:01.896Z,2.50
2023-04-30T12:24:28.585Z,2.83
2023-04-30T12:27:53.755Z,2.63
2023-04-30T12:31:19.499Z,2.70
2023-04-30T12:34:43.470Z,2.43
2023-04-30T12:38:09.503Z,2.67
2023-04-30T12:41:33.120Z,2.50
2023-04-30T12:44:56.712Z,2.00
2023-04-30T12:48:21.696Z,1.90
2023-04-30T12:51:45.380Z,2.77
2023-04-30T12:55:23.034Z,2.87
2023-04-30T12:58:50.929Z,2.60
2023-04-30T13:02:15.663Z,3.80
2023-04-30T13:05:39.384Z,2.80
2023-04-30T13:09:04.272Z,2.73
2023-04-30T13:12:29.145Z,3.13
2023-04-30T13:15:52.839Z,3.40
2023-04-30T13:19:17.677Z,2.53
2023-04-30T13:22:41.276Z,2.60
2023-04-30T13:26:04.808Z,2.87
2023-04-30T13:29:29.841Z,2.20
2023-04-30T13:32:54.176Z,3.10
2023-04-30T13:36:17.762Z,2.50
2023-04-30T13:39:41.318Z,4.07
2023-04-30T13:43:05.785Z,2.77
2023-04-30T13:46:31.246Z,2.93
2023-04-30T13:49:55.016Z,2.73
2023-04-30T13:53:18.832Z,3.10
2023-04-30T13:56:42.400Z,2.67
2023-04-30T14:00:07.883Z,2.37
2023-04-30T14:03:33.773Z,2.30
2023-04-30T14:06:57.893Z,2.60
2023-04-30T14:10:21.498Z,2.90
2023-04-30T14:13:45.099Z,2.87
2023-04-30T14:17:08.952Z,2.30
2023-04-30T14:20:33.942Z,2.70
2023-04-30T14:23:57.556Z,3.00
2023-04-30T14:27:21.204Z,2.43
2023-04-30T14:30:44.805Z,1.87
2023-04-30T14:34:08.435Z,3.10
2023-04-30T14:37:33.445Z,2.53
2023-04-30T14:40:57.031Z,3.60
2023-04-30T14:44:21.271Z,2.67
2023-04-30T14:47:44.908Z,2.43
2023-04-30T14:51:08.683Z,2.40
2023-04-30T14:54:33.907Z,2.47
2023-04-30T14:57:57.498Z,2.90
2023-04-30T15:01:21.286Z,2.53
2023-04-30T15:04:45.992Z,2.30
2023-04-30T15:08:09.693Z,2.80
2023-04-30T15:11:34.847Z,3.10
2023-04-30T15:14:58.441Z,2.40
2023-04-30T15:18:22.218Z,2.30
2023-04-30T15:21:48.378Z,2.40
2023-04-30T15:25:12.566Z,3.03
2023-04-30T15:28:37.696Z,2.10
2023-04-30T15:32:01.465Z,2.43
2023-04-30T15:35:26.474Z,2.87
2023-04-30T15:38:50.077Z,2.40
2023-04-30T15:42:13.601Z,2.20
2023-04-30T15:45:38.605Z,2.33
2023-04-30T15:49:02.344Z,3.00
2023-04-30T15:52:26.159Z,2.40
2023-04-30T15:55:50.617Z,2.20
2023-04-30T15:59:17.609Z,2.30
2023-04-30T16:02:44.190Z,2.80
2023-04-30T16:06:08.946Z,2.17
2023-04-30T16:09:32.818Z,1.93
2023-04-30T16:12:56.372Z,2.13
2023-04-30T16:16:20.148Z,2.80
2023-04-30T16:19:45.444Z,2.90
2023-04-30T16:23:08.991Z,2.37
2023-04-30T16:26:34.691Z,2.70
2023-04-30T16:29:58.502Z,2.40
2023-04-30T16:33:25.015Z,3.03
2023-04-30T16:36:49.994Z,2.37
2023-04-30T16:40:13.787Z,2.27
2023-04-30T16:43:37.433Z,2.30
2023-04-30T16:47:00.976Z,2.30
2023-04-30T16:50:26.692Z,2.30
2023-04-30T16:53:51.706Z,3.00
2023-04-30T16:57:15.270Z,2.50
2023-04-30T17:00:38.822Z,2.73
2023-04-30T17:04:02.548Z,3.00
2023-04-30T17:07:27.036Z,2.23
2023-04-30T17:10:51.925Z,2.70
2023-04-30T17:14:15.403Z,2.47
2023-04-30T17:17:38.992Z,2.57
2023-04-30T17:21:02.783Z,2.50
2023-04-30T17:24:26.436Z,2.80
2023-04-30T17:27:51.328Z,3.10
2023-04-30T17:31:15.615Z,2.67
2023-04-30T17:34:39.365Z,2.50
2023-04-30T17:38:02.920Z,3.27
2023-04-30T17:41:26.456Z,2.37
2023-04-30T17:44:51.365Z,2.40
2023-04-30T17:48:14.895Z,2.70
2023-04-30T17:51:38.590Z,2.83
2023-04-30T17:55:02.201Z,2.10
2023-04-30T17:58:26.427Z,2.50
2023-04-30T18:01:51.329Z,2.00
2023-04-30T18:05:14.999Z,2.33
2023-04-30T18:08:38.499Z,2.23
2023-04-30T18:12:02.038Z,2.70
2023-04-30T18:15:25.550Z,2.43
2023-04-30T18:18:50.401Z,3.07
2023-04-30T18:22:14.076Z,2.13
2023-04-30T18:25:37.930Z,2.37
2023-04-30T18:29:01.522Z,3.77
2023-04-30T18:32:25.118Z,2.93
2023-04-30T18:35:51.490Z,2.37
2023-04-30T18:39:15.013Z,3.10
2023-04-30T18:42:38.781Z,3.17
2023-04-30T18:46:02.452Z,2.97
2023-04-30T18:49:26.051Z,2.97
2023-04-30T18:52:51.423Z,3.70
2023-04-30T18:56:15.771Z,4.27
2023-04-30T18:59:40.244Z,3.60
2023-04-30T19:03:04.034Z,3.40
2023-04-30T19:06:30.713Z,3.10
2023-04-30T19:09:56.627Z,4.27
2023-04-30T19:13:20.554Z,3.77
2023-04-30T19:16:44.430Z,3.43
2023-04-30T19:20:09.158Z,3.53
2023-04-30T19:23:32.787Z,3.50
2023-04-30T19:26:57.763Z,2.87
2023-04-30T19:30:21.448Z,3.70
2023-04-30T19:33:44.975Z,3.67
2023-04-30T19:37:08.545Z,3.97
2023-04-30T19:40:32.060Z,3.70
2023-04-30T19:43:56.939Z,3.40
2023-04-30T19:47:20.598Z,3.97
2023-04-30T19:50:45.190Z,3.60
2023-04-30T19:54:13.820Z,3.70
2023-04-30T19:57:37.341Z,3.70
2023-04-30T20:01:02.195Z,4.37
2023-04-30T20:04:27.270Z,4.63
2023-04-30T20:07:50.801Z,3.90
2023-04-30T20:11:14.388Z,3.80
2023-04-30T20:14:38.023Z,3.60
2023-04-30T20:18:05.434Z,4.00
2023-04-30T20:21:29.082Z,4.43
2023-04-30T20:24:52.626Z,3.87
2023-04-30T20:28:18.129Z,4.60
2023-04-30T20:31:41.996Z,5.10
2023-04-30T20:35:08.196Z,5.10
2023-04-30T20:38:31.850Z,5.60
2023-04-30T20:41:55.393Z,5.87
2023-04-30T20:45:19.482Z,5.50
2023-04-30T20:48:43.000Z,6.17
2023-04-30T20:52:08.054Z,7.30
2023-04-30T20:55:31.854Z,6.53
2023-04-30T20:58:55.846Z,6.30
2023-04-30T21:02:19.522Z,6.30
2023-04-30T21:05:43.129Z,5.97
2023-04-30T21:09:08.104Z,6.30
2023-04-30T21:12:31.780Z,5.73
2023-04-30T21:15:56.425Z,6.50
2023-04-30T21:19:20.152Z,7.03
2023-04-30T21:22:44.091Z,6.20
2023-04-30T21:26:09.158Z,6.80
2023-04-30T21:29:32.702Z,6.90
2023-04-30T21:32:58.916Z,7.10
2023-04-30T21:36:22.811Z,7.73
2023-04-30T21:39:46.528Z,7.67
2023-04-30T21:43:11.442Z,6.80
2023-04-30T21:46:35.028Z,6.20
2023-04-30T21:49:59.493Z,6.83
2023-04-30T21:53:23.026Z,8.67
2023-04-30T21:56:46.771Z,7.13
2023-04-30T22:00:14.256Z,7.73
2023-04-30T22:03:44.398Z,7.70
2023-04-30T22:07:07.991Z,8.20
2023-04-30T22:10:31.820Z,7.13
2023-04-30T22:13:55.332Z,6.83
2023-04-30T22:17:20.291Z,6.17
2023-04-30T22:20:43.814Z,6.23
2023-04-30T22:24:07.559Z,6.97
2023-04-30T22:27:31.256Z,8.17
2023-04-30T22:30:59.524Z,7.23
2023-04-30T22:34:25.444Z,7.43
2023-04-30T22:37:48.994Z,7.93
2023-04-30T22:41:12.737Z,6.80
2023-04-30T22:44:36.781Z,7.33
2023-04-30T22:48:01.950Z,7.63
2023-04-30T22:51:27.873Z,8.00
2023-04-30T22:54:51.516Z,7.67
2023-04-30T22:58:15.031Z,8.00
2023-04-30T23:01:42.413Z,7.97
2023-04-30T23:05:06.728Z,6.80
2023-04-30T23:08:32.340Z,7.70
2023-04-30T23:11:56.121Z,7.10
2023-04-30T23:15:19.797Z,7.20
2023-04-30T23:18:43.527Z,7.00
2023-04-30T23:22:06.999Z,6.93
2023-04-30T23:25:32.423Z,7.87
2023-04-30T23:28:56.300Z,6.93
2023-04-30T23:32:20.537Z,6.90
2023-04-30T23:35:44.239Z,6.63
2023-04-30T23:39:07.917Z,8.10
2023-04-30T23:42:32.785Z,6.60
2023-04-30T23:45:56.529Z,7.67
2023-04-30T23:49:24.264Z,8.73
2023-04-30T23:52:48.031Z,7.83
2023-04-30T23:56:11.661Z,8.47
2023-04-30T23:59:36.734Z,7.67
